Tixi — OH5935 — position and weather

sailwx.info

Track history (hours):
 
Tides and Currents Weather Stations Pressure Air Temp Water Temp Dewpoint Dewpoint Depression Visibility Wind Speed Wind Dir Waves Ship Positions

Tixi

Last reported at 2017-Sep-13 18:02 UTC. Time now 2017-Sep-21 18:08 UTC.
Position N 38°41' W 009°25'.
Warning: this ship's position is 8 days out of date.

Length 12 m.

Type: Pleasure craft. MMSI: 230088260.

Date/timePositionNaut miles runAvg speedWind from/ knotsBaromVisibWave heightAir tempDewpointWater temp
2017-Sep-13 18:02N 38°41' W 009°25'0 0.0
2017-Sep-13 17:53N 38°41' W 009°25'0 0.0
2017-Sep-13 17:08N 38°41' W 009°25'0 0.0
2017-Sep-13 16:50N 38°41' W 009°25'0 0.0
2017-Sep-13 15:53N 38°41' W 009°25'0 0.0
2017-Sep-13 15:23N 38°41' W 009°25'0 0.5
2017-Sep-13 14:54N 38°42' W 009°25'0 0.1
2017-Sep-13 14:25N 38°42' W 009°25'2 4.2
2017-Sep-13 14:01N 38°40' W 009°26'3 6.2
2017-Sep-13 13:30N 38°40' W 009°30'3 6.6
2017-Sep-13 13:00N 38°42' W 009°33'3 6.2
2017-Sep-13 12:30N 38°45' W 009°34'3 6.1
2017-Sep-13 12:00N 38°48' W 009°33'3 5.8
2017-Sep-13 11:30N 38°51' W 009°33'3 6.2
2017-Sep-13 11:00N 38°54' W 009°32'3 6.2
2017-Sep-13 10:30N 38°57' W 009°31'3 6.1
2017-Sep-13 10:00N 38°60' W 009°31'3 5.8
2017-Sep-13 09:30N 39°03' W 009°30'3 6.6
2017-Sep-13 09:00N 39°06' W 009°29'3 6.3
2017-Sep-13 08:30N 39°09' W 009°28'3 6.3
2017-Sep-13 08:00N 39°12' W 009°27'  
Track history (hours):
 
Tides and Currents Weather Stations Pressure Air Temp Water Temp Dewpoint Dewpoint Depression Visibility Wind Speed Wind Dir Waves Ship Positions

Tixi

Last reported at 2017-Sep-13 18:02 UTC. Time now 2017-Sep-21 18:08 UTC.
Position N 38°41' W 009°25'.
Warning: this ship's position is 8 days out of date.

Length 12 m.

Type: Pleasure craft. MMSI: 230088260.

Date/timePositionNaut miles runAvg speedWind from/ knotsBaromVisibWave heightAir tempDewpointWater temp
2017-Sep-13 18:02N 38°41' W 009°25'0 0.0
2017-Sep-13 17:53N 38°41' W 009°25'0 0.0
2017-Sep-13 17:08N 38°41' W 009°25'0 0.0
2017-Sep-13 16:50N 38°41' W 009°25'0 0.0
2017-Sep-13 15:53N 38°41' W 009°25'0 0.0
2017-Sep-13 15:23N 38°41' W 009°25'0 0.5
2017-Sep-13 14:54N 38°42' W 009°25'0 0.1
2017-Sep-13 14:25N 38°42' W 009°25'2 4.2
2017-Sep-13 14:01N 38°40' W 009°26'3 6.2
2017-Sep-13 13:30N 38°40' W 009°30'3 6.6
2017-Sep-13 13:00N 38°42' W 009°33'3 6.2
2017-Sep-13 12:30N 38°45' W 009°34'3 6.1
2017-Sep-13 12:00N 38°48' W 009°33'3 5.8
2017-Sep-13 11:30N 38°51' W 009°33'3 6.2
2017-Sep-13 11:00N 38°54' W 009°32'3 6.2
2017-Sep-13 10:30N 38°57' W 009°31'3 6.1
2017-Sep-13 10:00N 38°60' W 009°31'3 5.8
2017-Sep-13 09:30N 39°03' W 009°30'3 6.6
2017-Sep-13 09:00N 39°06' W 009°29'3 6.3
2017-Sep-13 08:30N 39°09' W 009°28'3 6.3
2017-Sep-13 08:00N 39°12' W 009°27'  

Dump ship's entire track history